Time;durP1;ratioP1;P1;durP2;ratioP2;P2;SDS_P1;SDS_P2;PMS_P1;PMS_P2;Temp;Humidity;BMP_temperature;BMP_pressure;BME280_temperature;BME280_humidity;BME280_pressure;Samples;Min_cycle;Max_cycle;Signal;HPM_P1;HPM_P2
2022/12/05 00:02:13;;;;;;;8.10;5.30;;;;;;;-2.20;93.17;102641.61;105431;1267;70782;-73
2022/12/05 00:04:43;;;;;;;9.20;4.40;;;;;;;-2.13;93.47;102643.40;105555;1267;71620;-73
2022/12/05 00:07:12;;;;;;;6.30;4.40;;;;;;;-2.19;93.38;102644.37;105463;1266;61335;-72
2022/12/05 00:09:41;;;;;;;8.70;4.70;;;;;;;-2.16;93.99;102644.55;105520;1269;60186;-71
2022/12/05 00:12:10;;;;;;;6.10;4.10;;;;;;;-2.19;94.15;102639.24;105491;1262;72945;-72
2022/12/05 00:14:39;;;;;;;7.90;4.50;;;;;;;-2.14;94.34;102635.88;105527;1275;73829;-72
2022/12/05 00:17:08;;;;;;;9.70;5.40;;;;;;;-2.15;93.53;102639.11;105561;1275;69996;-72
2022/12/05 00:19:39;;;;;;;7.10;4.50;;;;;;;-2.12;94.43;102639.14;105545;1275;71243;-72
2022/12/05 00:22:07;;;;;;;5.80;4.50;;;;;;;-2.09;94.55;102643.79;105518;1268;61872;-72
2022/12/05 00:24:37;;;;;;;6.90;4.80;;;;;;;-2.16;94.37;102645.58;105573;1268;59756;-70
2022/12/05 00:27:06;;;;;;;7.10;5.00;;;;;;;-2.02;95.36;102647.29;105493;1264;71545;-71
2022/12/05 00:29:36;;;;;;;9.20;5.00;;;;;;;-2.06;93.80;102645.17;105557;1266;69569;-73
2022/12/05 00:32:04;;;;;;;7.10;4.60;;;;;;;-2.12;93.69;102648.88;105622;1268;70275;-75
2022/12/05 00:34:33;;;;;;;6.70;4.60;;;;;;;-2.13;93.81;102647.66;105588;1274;73771;-72
2022/12/05 00:37:02;;;;;;;7.90;4.40;;;;;;;-2.10;93.55;102648.20;105543;1267;62317;-73
2022/12/05 00:39:31;;;;;;;8.50;4.70;;;;;;;-2.04;94.47;102646.57;105565;1266;59417;-72
2022/12/05 00:42:00;;;;;;;7.20;4.80;;;;;;;-2.00;94.22;102650.87;105540;1271;70841;-73
2022/12/05 00:44:29;;;;;;;7.60;4.60;;;;;;;-1.88;95.89;102650.66;105445;1270;70494;-73
2022/12/05 00:46:58;;;;;;;6.50;4.50;;;;;;;-1.91;93.03;102650.64;105581;1270;68061;-73
2022/12/05 00:49:26;;;;;;;5.30;3.40;;;;;;;-1.97;92.91;102650.23;105492;1266;73688;-70
2022/12/05 00:51:55;;;;;;;8.00;4.90;;;;;;;-1.97;92.76;102654.00;105508;1264;61894;-72
2022/12/05 00:54:24;;;;;;;7.00;4.40;;;;;;;-1.97;93.05;102649.38;105518;1266;61267;-71
2022/12/05 00:56:55;;;;;;;7.60;4.40;;;;;;;-2.06;92.79;102649.45;105493;1267;72851;-72
2022/12/05 00:59:24;;;;;;;5.00;3.40;;;;;;;-2.01;93.76;102647.96;105479;1257;71412;-72
2022/12/05 01:01:52;;;;;;;6.50;4.30;;;;;;;-2.00;93.21;102651.22;105474;1270;71205;-73
2022/12/05 01:04:24;;;;;;;6.50;4.50;;;;;;;-1.94;93.83;102647.53;105492;1270;74575;-71
2022/12/05 01:06:56;;;;;;;6.30;3.80;;;;;;;-1.98;92.86;102649.37;105513;1269;62553;-71
2022/12/05 01:09:25;;;;;;;7.00;4.40;;;;;;;-1.97;93.55;102650.73;105474;1262;61014;-71
2022/12/05 01:11:55;;;;;;;7.50;4.30;;;;;;;-1.98;92.93;102649.70;105501;1266;72688;-71
2022/12/05 01:14:25;;;;;;;6.40;4.40;;;;;;;-1.94;93.32;102644.80;105485;1266;71358;-71
2022/12/05 01:16:55;;;;;;;7.60;4.70;;;;;;;-1.92;93.39;102646.36;105442;1267;69052;-71
2022/12/05 01:19:29;;;;;;;5.80;4.30;;;;;;;-1.84;93.41;102644.39;105387;1267;74462;-71
2022/12/05 01:21:58;;;;;;;6.40;4.30;;;;;;;-1.78;92.95;102643.59;105459;1273;60659;-72
2022/12/05 01:24:29;;;;;;;5.70;4.20;;;;;;;-1.79;92.51;102639.30;105529;1270;61437;-72
2022/12/05 01:26:58;;;;;;;5.90;4.50;;;;;;;-1.80;93.98;102635.19;105473;1261;71614;-73
2022/12/05 01:29:27;;;;;;;6.90;4.30;;;;;;;-1.72;93.67;102635.27;105520;1264;72134;-72
2022/12/05 01:31:56;;;;;;;6.30;4.00;;;;;;;-1.70;92.89;102634.44;105441;1262;68208;-73
2022/12/05 01:34:25;;;;;;;6.90;4.60;;;;;;;-1.69;92.89;102635.81;105485;1275;71772;-71
2022/12/05 01:36:54;;;;;;;6.80;4.70;;;;;;;-1.82;92.09;102634.51;105502;1275;63200;-72
2022/12/05 01:39:23;;;;;;;6.90;4.80;;;;;;;-1.81;92.95;102633.14;105529;1267;59222;-72
2022/12/05 01:41:51;;;;;;;6.90;4.40;;;;;;;-1.77;92.72;102629.77;105569;1264;73423;-72
2022/12/05 01:44:23;;;;;;;6.70;4.40;;;;;;;-1.76;92.17;102630.45;105519;1260;69502;-70
2022/12/05 01:46:55;;;;;;;7.70;4.30;;;;;;;-1.76;92.58;102627.05;105515;1275;67834;-71
2022/12/05 01:49:36;;;;;;;7.90;4.50;;;;;;;-1.75;91.57;102626.53;105510;1260;71083;-70
2022/12/05 01:52:22;;;;;;;5.80;4.20;;;;;;;-1.75;93.17;102624.48;105516;1266;61838;-71
2022/12/05 01:54:55;;;;;;;7.60;4.10;;;;;;;-1.75;93.24;102620.38;105611;1258;60811;-72
2022/12/05 01:57:25;;;;;;;6.80;4.90;;;;;;;-1.80;92.09;102620.35;105570;1275;70568;-73
2022/12/05 02:00:01;;;;;;;9.10;5.40;;;;;;;-1.85;92.77;102621.65;105418;1272;69527;-71
2022/12/05 02:02:49;;;;;;;7.40;5.00;;;;;;;-1.84;92.85;102617.07;105521;1264;69664;-74
2022/12/05 02:05:25;;;;;;;7.00;5.20;;;;;;;-1.89;93.39;102615.81;105576;1260;70431;-73
2022/12/05 02:07:57;;;;;;;8.00;5.50;;;;;;;-1.87;93.17;102615.33;105544;1269;60930;-73
2022/12/05 02:10:29;;;;;;;8.60;5.90;;;;;;;-1.76;93.94;102608.25;105574;1275;60991;-72
2022/12/05 02:13:17;;;;;;;8.30;5.70;;;;;;;-1.77;92.75;102606.70;105595;1266;73109;-72
2022/12/05 02:16:05;;;;;;;9.40;5.40;;;;;;;-1.72;94.80;102605.89;105496;1275;70020;-73
2022/12/05 02:19:18;;;;;;;7.90;4.30;;;;;;;-1.78;92.58;102605.33;105495;1268;69191;-72
2022/12/05 02:22:35;;;;;;;7.10;4.80;;;;;;;-1.80;93.28;102596.09;105549;1274;73775;-72
2022/12/05 02:25:44;;;;;;;8.60;5.40;;;;;;;-1.85;93.41;102592.29;105512;1267;62169;-72
2022/12/05 02:28:40;;;;;;;8.90;6.00;;;;;;;-1.81;94.09;102591.98;105583;1270;61625;-71
2022/12/05 02:31:33;;;;;;;8.00;5.40;;;;;;;-1.72;94.01;102592.05;105549;1266;73917;-72
2022/12/05 02:34:23;;;;;;;10.00;6.70;;;;;;;-1.68;93.13;102592.09;105441;1266;72972;-72
2022/12/05 02:37:13;;;;;;;8.20;5.40;;;;;;;-1.73;92.73;102592.38;105469;1274;69996;-74
2022/12/05 02:39:59;;;;;;;8.20;5.70;;;;;;;-1.72;92.75;102590.17;105508;1275;70923;-72
2022/12/05 02:43:10;;;;;;;7.50;6.00;;;;;;;-1.72;93.78;102590.02;105498;1266;61061;-71
2022/12/05 02:45:41;;;;;;;9.60;5.90;;;;;;;-1.81;93.05;102589.41;105528;1266;59817;-71
2022/12/05 02:48:14;;;;;;;9.60;6.40;;;;;;;-1.78;93.65;102591.48;105468;1266;73477;-71
2022/12/05 02:50:46;;;;;;;11.60;6.10;;;;;;;-1.75;93.54;102592.55;105420;1269;72656;-71
2022/12/05 02:53:19;;;;;;;8.90;6.10;;;;;;;-1.76;93.31;102587.92;105448;1269;69835;-71
2022/12/05 02:55:48;;;;;;;10.60;6.70;;;;;;;-1.79;93.00;102587.71;105270;1272;73819;-74
2022/12/05 02:58:26;;;;;;;10.40;6.20;;;;;;;-1.83;93.06;102585.13;105324;1267;60891;-73
2022/12/05 03:00:57;;;;;;;10.30;6.90;;;;;;;-1.79;93.37;102581.23;105423;1271;59076;-70
2022/12/05 03:03:27;;;;;;;10.70;7.00;;;;;;;-1.74;93.68;102582.30;105418;1272;70701;-72
2022/12/05 03:06:16;;;;;;;13.20;6.80;;;;;;;-1.74;92.87;102579.21;105363;1263;69553;-72
2022/12/05 03:09:05;;;;;;;9.50;6.10;;;;;;;-1.72;93.64;102581.98;105396;1274;67676;-73
2022/12/05 03:11:44;;;;;;;10.30;6.90;;;;;;;-1.70;93.14;102584.20;105477;1273;71891;-74
2022/12/05 03:14:21;;;;;;;13.00;7.00;;;;;;;-1.72;92.79;102582.32;105498;1263;61125;-74
2022/12/05 03:16:56;;;;;;;11.30;6.50;;;;;;;-1.71;92.82;102585.91;105451;1274;60355;-72
2022/12/05 03:20:07;;;;;;;13.50;7.10;;;;;;;-1.70;92.23;102585.40;105458;1269;73466;-71
2022/12/05 03:22:51;;;;;;;12.60;7.40;;;;;;;-1.71;94.19;102594.11;105304;1266;72077;-71
2022/12/05 03:25:24;;;;;;;12.00;7.40;;;;;;;-1.76;92.31;102592.52;105458;1267;68885;-72
2022/12/05 03:28:09;;;;;;;15.20;7.80;;;;;;;-1.81;91.75;102594.70;105664;1269;71794;-73
2022/12/05 03:30:38;;;;;;;13.80;7.10;;;;;;;-1.77;92.67;102591.67;105521;1266;59682;-71
2022/12/05 03:33:22;;;;;;;12.40;7.00;;;;;;;-1.78;93.24;102591.15;105499;1270;60067;-74
2022/12/05 03:36:23;;;;;;;12.10;7.00;;;;;;;-1.66;94.39;102590.38;105542;1262;71134;-73
2022/12/05 03:39:01;;;;;;;17.70;7.20;;;;;;;-1.64;93.36;102594.16;105378;1274;72102;-71
2022/12/05 03:41:45;;;;;;;14.20;7.00;;;;;;;-1.82;91.66;102590.27;105413;1274;68295;-72
2022/12/05 03:44:23;;;;;;;11.60;6.80;;;;;;;-1.87;91.99;102593.80;105374;1272;73772;-73
2022/12/05 03:47:06;;;;;;;15.20;7.40;;;;;;;-1.80;93.09;102593.69;105434;1266;61934;-73
2022/12/05 03:49:50;;;;;;;14.00;7.30;;;;;;;-1.83;93.47;102587.69;105535;1275;59762;-73
2022/12/05 03:52:36;;;;;;;9.30;6.30;;;;;;;-1.88;92.62;102590.71;105447;1270;72573;-74
2022/12/05 03:55:29;;;;;;;10.30;6.00;;;;;;;-1.97;92.99;102587.55;105580;1274;71850;-73
2022/12/05 03:58:09;;;;;;;11.60;6.90;;;;;;;-2.03;93.74;102590.23;105299;1269;69569;-73
2022/12/05 04:00:44;;;;;;;11.70;7.10;;;;;;;-1.99;94.15;102591.63;105504;1266;73234;-75
2022/12/05 04:03:37;;;;;;;11.60;6.90;;;;;;;-2.01;93.51;102591.80;105618;1274;60870;-75
2022/12/05 04:06:30;;;;;;;12.80;7.40;;;;;;;-1.96;94.37;102592.52;105541;1265;60451;-75
2022/12/05 04:09:19;;;;;;;11.30;7.40;;;;;;;-1.99;94.14;102590.78;105619;1265;70660;-75
2022/12/05 04:11:56;;;;;;;13.10;7.60;;;;;;;-2.04;93.68;102591.08;105654;1270;69072;-74
2022/12/05 04:14:43;;;;;;;11.60;7.30;;;;;;;-1.96;95.50;102593.89;105632;1260;68548;-72
2022/12/05 04:17:55;;;;;;;11.00;6.90;;;;;;;-1.81;96.38;102595.05;105592;1265;73018;-73
2022/12/05 04:23:34;;;;;;;10.90;6.30;;;;;;;-1.91;93.33;102595.64;105665;1267;60817;-75
2022/12/05 04:26:18;;;;;;;9.50;6.10;;;;;;;-1.96;92.91;102596.28;105775;1260;71126;-76
2022/12/05 04:29:11;;;;;;;8.70;5.20;;;;;;;-2.02;93.30;102602.53;105779;1269;70602;-78
2022/12/05 04:31:48;;;;;;;9.00;5.00;;;;;;;-1.99;93.07;102595.39;105698;1267;70101;-75
2022/12/05 04:34:20;;;;;;;11.50;6.70;;;;;;;-2.02;92.84;102592.63;105642;1274;71751;-74
2022/12/05 04:37:03;;;;;;;7.80;4.90;;;;;;;-2.09;92.94;102592.73;105724;1266;59633;-73
2022/12/05 04:39:54;;;;;;;12.70;8.50;;;;;;;-2.03;93.28;102595.52;105649;1260;60171;-73
2022/12/05 04:42:29;;;;;;;14.80;7.70;;;;;;;-1.90;93.87;102592.08;105657;1267;73832;-73
2022/12/05 04:45:09;;;;;;;15.00;7.10;;;;;;;-2.04;92.24;102591.92;105626;1270;72124;-75
2022/12/05 04:48:13;;;;;;;14.00;7.50;;;;;;;-1.98;92.54;102592.15;102942;1296;600409;-74
2022/12/05 04:50:45;;;;;;;15.40;8.20;;;;;;;-2.07;92.13;102586.09;105308;1277;60471;-74
2022/12/05 04:53:15;;;;;;;17.00;7.90;;;;;;;-2.02;93.11;102590.58;105200;1270;59440;-73
2022/12/05 04:55:49;;;;;;;16.80;8.40;;;;;;;-2.07;92.68;102580.46;105277;1270;69916;-75
2022/12/05 04:58:23;;;;;;;18.80;8.40;;;;;;;-2.03;92.30;102586.98;105232;1276;70186;-76
2022/12/05 05:01:14;;;;;;;15.10;8.30;;;;;;;-2.09;92.44;102587.44;104252;1276;1381985;-72
2022/12/05 05:04:06;;;;;;;13.50;8.10;;;;;;;-2.08;92.53;102587.45;105480;1270;71633;-76
2022/12/05 05:06:39;;;;;;;14.40;8.90;;;;;;;-2.14;92.51;102580.73;105378;1276;60588;-75
2022/12/05 05:09:09;;;;;;;12.40;7.50;;;;;;;-2.11;92.27;102575.12;105407;1276;58754;-75
2022/12/05 05:11:38;;;;;;;12.10;7.60;;;;;;;-2.14;92.12;102580.57;105381;1263;69796;-78
2022/12/05 05:14:07;;;;;;;13.40;7.40;;;;;;;-2.16;92.57;102579.86;105323;1278;70592;-74
2022/12/05 05:16:40;;;;;;;13.40;8.10;;;;;;;-2.12;92.97;102582.45;105636;1270;68673;-79
2022/12/05 05:19:10;;;;;;;;;;;;;;;-2.16;92.77;102578.14;105382;1266;72404;-77
2022/12/05 05:21:41;;;;;;;14.30;8.30;;;;;;;-2.17;92.64;102577.64;105456;1270;59604;-79
2022/12/05 05:24:11;;;;;;;15.20;8.60;;;;;;;-2.11;92.98;102574.11;105295;1281;58642;-76
2022/12/05 05:26:42;;;;;;;12.60;8.50;;;;;;;-2.09;92.74;102578.05;105210;1265;70795;-77
2022/12/05 05:29:14;;;;;;;15.90;8.50;;;;;;;-2.09;92.82;102573.61;105564;1277;70233;-88
2022/12/05 05:31:43;;;;;;;17.70;8.60;;;;;;;-2.10;92.66;102577.37;105535;1265;69586;-81
2022/12/05 05:34:14;;;;;;;16.40;8.80;;;;;;;-2.09;92.55;102580.79;105311;1273;72012;-81
2022/12/05 05:36:43;;;;;;;15.60;8.30;;;;;;;-2.01;93.42;102582.73;105347;1275;59673;-77
2022/12/05 05:39:14;;;;;;;20.70;8.20;;;;;;;-2.01;92.31;102585.98;107511;1263;58607;-80
2022/12/05 05:41:43;;;;;;;14.60;8.40;;;;;;;-2.02;92.46;102587.16;107482;1272;71683;-79
2022/12/05 05:44:11;;;;;;;13.90;8.40;;;;;;;-2.09;92.36;102588.81;107519;1261;72094;-79
2022/12/05 05:46:40;;;;;;;15.30;8.00;;;;;;;-2.12;92.59;102587.42;107450;1268;69014;-80
2022/12/05 05:49:09;;;;;;;18.30;9.70;;;;;;;-2.08;93.49;102590.02;107504;1266;71583;-79
2022/12/05 05:51:38;;;;;;;17.20;8.90;;;;;;;-2.08;92.96;102590.18;107465;1270;59823;-80
2022/12/05 05:54:08;;;;;;;14.50;7.70;;;;;;;-2.00;93.26;102594.70;107476;1262;61034;-81
2022/12/05 05:56:38;;;;;;;13.90;7.80;;;;;;;-2.01;92.57;102592.80;107395;1264;71231;-80
2022/12/05 05:59:08;;;;;;;10.80;7.70;;;;;;;-2.03;92.96;102591.09;107572;1267;69460;-79
2022/12/05 06:01:37;;;;;;;16.90;9.10;;;;;;;-1.97;92.59;102595.25;107503;1267;69594;-80
2022/12/05 06:04:06;;;;;;;14.50;8.10;;;;;;;-1.98;92.61;102597.63;107509;1267;73768;-79
2022/12/05 06:06:35;;;;;;;12.60;7.70;;;;;;;-2.00;92.64;102594.36;107529;1267;61981;-81
2022/12/05 06:09:06;;;;;;;19.40;9.90;;;;;;;-1.99;92.41;102596.76;107542;1262;58883;-81
2022/12/05 06:11:35;;;;;;;16.70;6.80;;;;;;;-1.96;92.61;102593.88;107540;1275;69975;-80
2022/12/05 06:14:04;;;;;;;13.80;8.70;;;;;;;-1.96;92.41;102596.95;107637;1258;71264;-78
2022/12/05 06:16:32;;;;;;;17.60;9.00;;;;;;;-2.00;92.58;102601.02;107452;1267;70703;-77
2022/12/05 06:19:01;;;;;;;17.60;9.90;;;;;;;-1.98;93.14;102598.98;107391;1269;72854;-78
2022/12/05 06:21:30;;;;;;;19.40;10.50;;;;;;;-2.01;92.98;102596.73;107408;1273;60468;-74
2022/12/05 06:23:59;;;;;;;19.20;10.20;;;;;;;-2.01;93.10;102600.84;107471;1266;60235;-74
2022/12/05 06:26:27;;;;;;;15.80;9.10;;;;;;;-1.93;92.72;102601.78;107436;1270;72491;-82
2022/12/05 06:28:56;;;;;;;20.40;9.50;;;;;;;-1.86;92.45;102601.33;107465;1273;71012;-78
2022/12/05 06:31:30;;;;;;;21.10;9.30;;;;;;;-1.85;91.98;102600.30;107439;1273;68419;-77
2022/12/05 06:34:01;;;;;;;15.50;9.30;;;;;;;-1.85;92.07;102599.98;107424;1267;71871;-79
2022/12/05 06:36:30;;;;;;;14.90;9.20;;;;;;;-1.75;91.88;102600.23;107287;1270;59919;-71
2022/12/05 06:38:59;;;;;;;12.20;8.00;;;;;;;-1.77;91.41;102600.73;107254;1270;59051;-76
2022/12/05 06:41:28;;;;;;;14.90;9.70;;;;;;;-1.73;92.05;102605.02;107274;1267;70735;-79
2022/12/05 06:43:58;;;;;;;17.50;9.10;;;;;;;-1.66;91.37;102604.58;107365;1270;69401;-77
2022/12/05 06:46:29;;;;;;;18.20;9.10;;;;;;;-1.65;91.18;102605.95;107336;1266;70336;-76
2022/12/05 06:48:58;;;;;;;15.20;9.20;;;;;;;-1.63;91.18;102602.38;107236;1269;73695;-76
2022/12/05 06:51:27;;;;;;;13.80;8.40;;;;;;;-1.61;90.63;102604.10;107260;1266;60262;-76
2022/12/05 06:53:57;;;;;;;14.50;8.50;;;;;;;-1.54;90.93;102597.48;107523;1267;58869;-77
2022/12/05 06:56:25;;;;;;;18.80;9.40;;;;;;;-1.53;90.71;102603.48;107524;1267;73438;-76
2022/12/05 06:58:55;;;;;;;12.30;7.90;;;;;;;-1.60;90.54;102601.39;107641;1263;70940;-76
2022/12/05 07:01:42;;;;;;;14.40;8.50;;;;;;;-1.76;91.22;102604.83;107440;1267;69682;-76
2022/12/05 07:04:19;;;;;;;14.60;8.90;;;;;;;-1.60;90.53;102607.36;107455;1273;72367;-76
2022/12/05 07:06:48;;;;;;;16.00;9.20;;;;;;;-1.60;90.33;102607.02;107422;1264;61091;-76
2022/12/05 07:09:22;;;;;;;21.50;10.30;;;;;;;-1.63;90.29;102607.33;107499;1273;60075;-76
2022/12/05 07:11:51;;;;;;;14.90;7.60;;;;;;;-1.68;90.57;102607.63;107539;1266;72659;-77
2022/12/05 07:14:19;;;;;;;13.00;7.90;;;;;;;-1.65;90.57;102610.73;107481;1258;70489;-76
2022/12/05 07:17:09;;;;;;;13.20;7.50;;;;;;;-1.64;90.40;102612.11;107548;1267;68534;-76
2022/12/05 07:19:38;;;;;;;17.90;9.40;;;;;;;-1.60;91.08;102610.93;107451;1264;73788;-77
2022/12/05 07:22:07;;;;;;;13.80;8.30;;;;;;;-1.56;90.51;102611.84;107454;1263;62368;-77
2022/12/05 07:24:44;;;;;;;17.00;8.10;;;;;;;-1.55;90.57;102608.77;107544;1267;60766;-76
2022/12/05 07:27:14;;;;;;;13.50;7.60;;;;;;;-1.55;90.59;102607.73;107509;1263;71165;-76
2022/12/05 07:29:43;;;;;;;16.80;8.60;;;;;;;-1.51;90.40;102611.02;107596;1265;72103;-77
2022/12/05 07:32:11;;;;;;;15.50;8.90;;;;;;;-1.54;90.30;102607.06;107532;1273;70977;-76
2022/12/05 07:34:41;;;;;;;14.60;7.80;;;;;;;-1.52;90.55;102606.92;107576;1265;71446;-77
2022/12/05 07:37:09;;;;;;;13.50;8.20;;;;;;;-1.48;89.95;102608.14;107553;1271;60703;-76
2022/12/05 07:39:38;;;;;;;12.40;8.10;;;;;;;-1.32;89.88;102609.29;107604;1263;60133;-76
2022/12/05 07:42:06;;;;;;;16.00;8.40;;;;;;;-1.40;89.34;102607.34;107559;1273;71804;-76
2022/12/05 07:44:35;;;;;;;17.00;8.50;;;;;;;-1.31;89.76;102608.27;107670;1268;70530;-77
2022/12/05 07:47:04;;;;;;;13.10;8.90;;;;;;;-1.25;89.00;102605.05;107568;1267;67763;-76
2022/12/05 07:49:32;;;;;;;16.30;8.70;;;;;;;-1.21;88.71;102608.16;107514;1270;73000;-78
2022/12/05 07:52:01;;;;;;;18.60;11.80;;;;;;;-1.27;89.11;102613.25;107528;1269;58368;-77
2022/12/05 07:54:30;;;;;;;16.00;8.20;;;;;;;-1.13;88.66;102612.48;107650;1266;58649;-76
2022/12/05 07:56:58;;;;;;;16.50;7.90;;;;;;;-1.20;88.23;102611.92;107603;1266;72108;-78
2022/12/05 07:59:27;;;;;;;16.10;8.00;;;;;;;-1.16;88.03;102609.73;107664;1264;70669;-76
2022/12/05 08:01:56;;;;;;;15.40;8.30;;;;;;;-1.15;87.82;102613.51;107567;1266;69450;-76
2022/12/05 08:04:24;;;;;;;12.70;6.50;;;;;;;-1.09;87.96;102617.14;107484;1269;73389;-76
2022/12/05 08:06:53;;;;;;;11.10;7.30;;;;;;;-1.04;87.45;102619.04;107478;1264;60089;-78
2022/12/05 08:09:22;;;;;;;14.70;7.80;;;;;;;-1.00;87.35;102621.64;107601;1267;58800;-76
2022/12/05 08:11:50;;;;;;;14.20;8.20;;;;;;;-0.92;87.09;102619.81;107572;1267;72556;-77
2022/12/05 08:14:20;;;;;;;17.10;8.60;;;;;;;-0.90;87.07;102621.19;107688;1265;70697;-77
2022/12/05 08:16:49;;;;;;;16.20;7.90;;;;;;;-0.89;87.50;102618.29;107503;1269;68591;-77
2022/12/05 08:19:18;;;;;;;16.10;8.20;;;;;;;-0.96;86.70;102610.20;107476;1270;73112;-77
2022/12/05 08:21:47;;;;;;;17.30;7.70;;;;;;;-0.83;87.36;102616.95;107432;1264;60289;-77
2022/12/05 08:24:15;;;;;;;26.50;10.70;;;;;;;-0.79;86.87;102617.46;107461;1265;61677;-77
2022/12/05 08:26:44;;;;;;;13.50;7.20;;;;;;;-0.79;86.56;102615.59;107549;1267;71554;-76
2022/12/05 08:29:14;;;;;;;16.60;8.80;;;;;;;-0.77;86.74;102617.14;107680;1258;69460;-77
2022/12/05 08:31:48;;;;;;;19.10;8.80;;;;;;;-0.70;86.92;102614.77;107409;1273;66828;-76
2022/12/05 08:34:18;;;;;;;12.90;7.70;;;;;;;-0.63;86.73;102613.95;107484;1277;73171;-76
2022/12/05 08:36:47;;;;;;;11.90;7.00;;;;;;;-0.65;86.47;102611.20;107441;1270;58428;-77
2022/12/05 08:39:18;;;;;;;12.00;7.90;;;;;;;-0.58;86.49;102608.83;107378;1270;59650;-77
2022/12/05 08:41:47;;;;;;;12.60;7.10;;;;;;;-0.63;86.43;102606.09;107515;1270;70027;-77
2022/12/05 08:44:17;;;;;;;10.80;7.10;;;;;;;-0.68;86.34;102604.69;107482;1276;70493;-76
2022/12/05 08:46:49;;;;;;;11.10;7.50;;;;;;;-0.67;86.49;102598.54;107489;1273;68511;-77
2022/12/05 08:49:18;;;;;;;12.30;7.30;;;;;;;-0.69;86.46;102593.73;107556;1268;73760;-78
2022/12/05 08:51:47;;;;;;;12.80;6.50;;;;;;;-0.62;86.48;102596.51;107416;1269;60158;-77
2022/12/05 08:54:16;;;;;;;10.70;7.00;;;;;;;-0.65;86.09;102589.48;107378;1271;59272;-77
2022/12/05 08:56:44;;;;;;;11.70;6.80;;;;;;;-0.69;86.22;102590.14;107423;1263;73385;-77
2022/12/05 08:59:13;;;;;;;9.60;6.90;;;;;;;-0.67;86.32;102586.91;107558;1264;70785;-77
2022/12/05 09:01:42;;;;;;;12.10;6.90;;;;;;;-0.54;86.46;102581.30;107498;1270;69104;-77
2022/12/05 09:04:11;;;;;;;15.40;8.30;;;;;;;-0.42;86.03;102580.83;107476;1276;71150;-75
2022/12/05 09:06:41;;;;;;;10.50;6.60;;;;;;;-0.42;85.46;102578.43;107528;1267;59767;-78
2022/12/05 09:09:10;;;;;;;12.40;6.70;;;;;;;-0.45;85.09;102572.26;107419;1269;61193;-77
2022/12/05 09:11:47;;;;;;;10.10;6.60;;;;;;;-0.56;85.54;102574.11;107515;1273;70679;-77
2022/12/05 09:14:17;;;;;;;12.00;7.20;;;;;;;-0.48;84.74;102567.95;107466;1272;70240;-77
2022/12/05 09:16:46;;;;;;;16.90;7.00;;;;;;;-0.44;85.12;102566.27;107455;1273;70435;-78
2022/12/05 09:19:19;;;;;;;11.40;6.30;;;;;;;-0.48;85.11;102562.67;107394;1264;72358;-78
2022/12/05 09:21:48;;;;;;;11.70;6.90;;;;;;;-0.41;85.09;102560.79;107416;1277;58058;-79
2022/12/05 09:24:17;;;;;;;16.80;6.60;;;;;;;-0.36;84.38;102557.05;107542;1268;59577;-79
2022/12/05 09:26:46;;;;;;;8.20;6.00;;;;;;;-0.25;84.17;102554.16;107401;1269;72824;-77
2022/12/05 09:29:14;;;;;;;10.90;6.00;;;;;;;-0.14;84.32;102547.67;107556;1260;70035;-79
2022/12/05 09:31:48;;;;;;;10.10;6.00;;;;;;;-0.06;83.82;102544.42;107489;1273;68556;-77
2022/12/05 09:34:18;;;;;;;14.80;7.90;;;;;;;-0.16;84.28;102540.98;107365;1273;72336;-78
2022/12/05 09:36:50;;;;;;;12.40;7.20;;;;;;;-0.09;83.66;102542.55;107515;1267;59681;-78
2022/12/05 09:39:39;;;;;;;15.00;7.30;;;;;;;0.10;83.38;102541.52;107422;1276;58063;-80
2022/12/05 09:42:28;;;;;;;11.70;6.60;;;;;;;0.07;83.34;102533.64;107392;1276;72467;-77
2022/12/05 09:45:23;;;;;;;13.80;6.90;;;;;;;-0.02;83.44;102528.66;107461;1263;71403;-78
2022/12/05 09:48:00;;;;;;;9.90;6.40;;;;;;;0.14;83.42;102532.44;107248;1266;70852;-77
2022/12/05 09:50:55;;;;;;;11.30;6.90;;;;;;;-0.00;83.50;102523.88;107311;1269;71556;-76
2022/12/05 09:53:36;;;;;;;12.80;7.00;;;;;;;-0.15;83.98;102524.03;107381;1271;60368;-78
2022/12/05 09:56:08;;;;;;;11.00;5.90;;;;;;;-0.14;83.75;102517.70;107301;1270;60248;-76
2022/12/05 09:58:46;;;;;;;13.10;6.90;;;;;;;-0.11;83.70;102515.83;107479;1265;72263;-77
2022/12/05 10:01:47;;;;;;;8.90;5.90;;;;;;;-0.22;84.20;102517.01;107526;1263;70079;-78
2022/12/05 10:04:32;;;;;;;14.40;6.70;;;;;;;-0.27;84.45;102513.07;107413;1267;68611;-77
2022/12/05 10:07:39;;;;;;;13.20;7.60;;;;;;;-0.34;84.34;102511.19;107381;1267;74352;-78
2022/12/05 10:10:32;;;;;;;12.20;7.20;;;;;;;-0.46;84.50;102511.50;107384;1273;62493;-78
2022/12/05 10:13:21;;;;;;;16.70;7.70;;;;;;;-0.45;84.92;102504.30;107386;1265;60932;-78
2022/12/05 10:15:55;;;;;;;15.50;7.30;;;;;;;-0.35;84.70;102503.64;107288;1272;72450;-77
2022/12/05 10:18:54;;;;;;;20.60;7.70;;;;;;;-0.35;84.35;102490.27;107437;1268;72040;-77
2022/12/05 10:21:44;;;;;;;11.20;6.80;;;;;;;-0.37;84.63;102498.15;107279;1272;69014;-79
2022/12/05 10:24:28;;;;;;;13.80;6.90;;;;;;;-0.17;84.45;102497.65;107376;1273;71118;-79
2022/12/05 10:27:03;;;;;;;14.30;7.70;;;;;;;-0.02;83.01;102495.44;107347;1271;58149;-79
2022/12/05 10:29:40;;;;;;;11.80;7.20;;;;;;;0.02;83.07;102495.44;107233;1269;61642;-78
2022/12/05 10:32:23;;;;;;;10.30;7.50;;;;;;;-0.02;82.61;102491.33;107420;1277;73213;-78
2022/12/05 10:34:58;;;;;;;12.80;7.10;;;;;;;0.05;82.42;102487.90;107427;1267;70891;-77
2022/12/05 10:37:29;;;;;;;12.40;7.50;;;;;;;-0.12;82.51;102486.19;107319;1270;69701;-78
2022/12/05 10:39:58;;;;;;;12.10;6.80;;;;;;;-0.13;83.16;102481.74;107396;1271;70664;-76
2022/12/05 10:42:34;;;;;;;11.50;7.40;;;;;;;-0.18;83.12;102477.79;107437;1269;59480;-77
2022/12/05 10:45:12;;;;;;;9.10;5.80;;;;;;;-0.15;83.21;102479.85;107490;1260;59597;-77
2022/12/05 10:47:45;;;;;;;15.10;7.50;;;;;;;0.07;82.78;102477.45;107631;1273;74060;-77
2022/12/05 10:50:25;;;;;;;13.60;6.10;;;;;;;0.06;82.12;102478.48;107604;1270;70264;-76
2022/12/05 10:52:56;;;;;;;13.90;7.80;;;;;;;-0.06;82.85;102475.05;107433;1272;69117;-77
2022/12/05 10:55:33;;;;;;;411.60;58.20;;;;;;;-0.04;82.50;102473.69;107265;1266;73711;-79
2022/12/05 10:58:12;;;;;;;40.20;10.40;;;;;;;-0.00;83.37;102467.17;107283;1277;60238;-78
2022/12/05 11:00:50;;;;;;;57.60;12.10;;;;;;;0.11;83.46;102470.60;107435;1268;60339;-77
2022/12/05 11:03:29;;;;;;;149.20;22.50;;;;;;;0.02;82.67;102475.22;107503;1273;73214;-77
2022/12/05 11:06:17;;;;;;;45.30;10.50;;;;;;;0.09;82.79;102470.25;107521;1265;71260;-77
2022/12/05 11:08:53;;;;;;;12.10;7.20;;;;;;;0.28;82.27;102469.71;107431;1270;69116;-77
2022/12/05 11:11:37;;;;;;;13.20;7.90;;;;;;;0.17;82.05;102461.33;107400;1268;71070;-77
2022/12/05 11:14:23;;;;;;;32.00;9.20;;;;;;;0.18;82.38;102454.98;107461;1263;58321;-77
2022/12/05 11:17:00;;;;;;;17.30;8.60;;;;;;;0.22;82.80;102457.04;107352;1276;59154;-76
2022/12/05 11:19:38;;;;;;;14.00;7.40;;;;;;;0.18;82.66;102454.65;107442;1267;73352;-78
2022/12/05 11:22:16;;;;;;;13.30;7.30;;;;;;;0.14;82.25;102450.71;107618;1258;71588;-76
2022/12/05 11:24:45;;;;;;;13.80;7.40;;;;;;;0.14;82.60;102445.23;107479;1273;69582;-76
2022/12/05 11:27:16;;;;;;;21.10;7.70;;;;;;;-0.03;83.38;102434.46;107490;1267;74683;-77
2022/12/05 11:29:58;;;;;;;15.70;8.00;;;;;;;-0.08;83.88;102431.73;107420;1273;61421;-77
2022/12/05 11:32:32;;;;;;;10.60;6.70;;;;;;;0.04;83.59;102432.90;107466;1272;59392;-77
2022/12/05 11:35:10;;;;;;;21.70;9.00;;;;;;;0.05;84.24;102431.20;107482;1267;72614;-77
2022/12/05 11:37:44;;;;;;;13.00;8.30;;;;;;;0.16;84.05;102430.48;107603;1264;68531;-78
2022/12/05 11:40:21;;;;;;;24.00;8.10;;;;;;;0.30;83.40;102428.41;107500;1270;67800;-80
2022/12/05 11:43:38;;;;;;;13.70;8.50;;;;;;;0.31;82.95;102434.23;107585;1269;72125;-76
2022/12/05 11:46:54;;;;;;;12.40;7.30;;;;;;;0.12;83.42;102432.89;107532;1263;61046;-75
2022/12/05 11:50:22;;;;;;;17.20;7.70;;;;;;;0.17;83.46;102427.57;107397;1264;58930;-76
2022/12/05 11:53:12;;;;;;;11.00;7.40;;;;;;;0.16;83.97;102422.26;107484;1270;71618;-77
2022/12/05 11:56:00;;;;;;;13.10;6.80;;;;;;;0.06;84.17;102417.65;107654;1265;70683;-77